sensor_id;sensor_type;location;lat;lon;timestamp;P1;durP1;ratioP1;P2;durP2;ratioP2
56161;SDS011;42045;52.986;6.014;2023-02-23T00:01:24;107.15;;;60.47;;
56161;SDS011;42045;52.986;6.014;2023-02-23T00:03:55;113.13;;;58.35;;
56161;SDS011;42045;52.986;6.014;2023-02-23T00:06:23;105.35;;;57.08;;
56161;SDS011;42045;52.986;6.014;2023-02-23T00:08:53;96.05;;;57.78;;
56161;SDS011;42045;52.986;6.014;2023-02-23T00:11:19;95.95;;;55.78;;
56161;SDS011;42045;52.986;6.014;2023-02-23T00:13:46;100.60;;;54.30;;
56161;SDS011;42045;52.986;6.014;2023-02-23T00:16:23;98.13;;;55.88;;
56161;SDS011;42045;52.986;6.014;2023-02-23T00:18:51;102.78;;;54.78;;
56161;SDS011;42045;52.986;6.014;2023-02-23T00:21:23;94.90;;;52.50;;
56161;SDS011;42045;52.986;6.014;2023-02-23T00:23:58;92.72;;;52.95;;
56161;SDS011;42045;52.986;6.014;2023-02-23T00:26:31;88.72;;;52.58;;
56161;SDS011;42045;52.986;6.014;2023-02-23T00:29:09;92.13;;;52.20;;
56161;SDS011;42045;52.986;6.014;2023-02-23T00:31:37;86.68;;;49.53;;
56161;SDS011;42045;52.986;6.014;2023-02-23T00:34:03;92.18;;;48.50;;
56161;SDS011;42045;52.986;6.014;2023-02-23T00:36:31;88.82;;;50.60;;
56161;SDS011;42045;52.986;6.014;2023-02-23T00:38:59;93.20;;;50.00;;
56161;SDS011;42045;52.986;6.014;2023-02-23T00:41:26;90.78;;;51.40;;
56161;SDS011;42045;52.986;6.014;2023-02-23T00:43:56;97.35;;;52.90;;
56161;SDS011;42045;52.986;6.014;2023-02-23T00:46:24;95.20;;;49.88;;
56161;SDS011;42045;52.986;6.014;2023-02-23T00:48:51;106.22;;;54.85;;
56161;SDS011;42045;52.986;6.014;2023-02-23T00:51:21;91.85;;;52.25;;
56161;SDS011;42045;52.986;6.014;2023-02-23T00:53:48;99.85;;;51.28;;
56161;SDS011;42045;52.986;6.014;2023-02-23T00:56:17;105.35;;;52.75;;
56161;SDS011;42045;52.986;6.014;2023-02-23T00:58:42;92.57;;;50.13;;
56161;SDS011;42045;52.986;6.014;2023-02-23T01:01:09;95.90;;;50.83;;
56161;SDS011;42045;52.986;6.014;2023-02-23T01:03:37;104.07;;;51.83;;
56161;SDS011;42045;52.986;6.014;2023-02-23T01:06:05;111.10;;;53.85;;
56161;SDS011;42045;52.986;6.014;2023-02-23T01:08:34;97.10;;;52.20;;
56161;SDS011;42045;52.986;6.014;2023-02-23T01:11:04;108.22;;;53.45;;
56161;SDS011;42045;52.986;6.014;2023-02-23T01:13:35;109.55;;;54.05;;
56161;SDS011;42045;52.986;6.014;2023-02-23T01:16:05;97.97;;;51.20;;
56161;SDS011;42045;52.986;6.014;2023-02-23T01:18:32;105.47;;;54.03;;
56161;SDS011;42045;52.986;6.014;2023-02-23T01:20:59;101.07;;;51.80;;
56161;SDS011;42045;52.986;6.014;2023-02-23T01:23:25;100.75;;;52.63;;
56161;SDS011;42045;52.986;6.014;2023-02-23T01:25:51;101.80;;;54.03;;
56161;SDS011;42045;52.986;6.014;2023-02-23T01:28:16;105.07;;;51.58;;
56161;SDS011;42045;52.986;6.014;2023-02-23T01:30:42;112.75;;;56.42;;
56161;SDS011;42045;52.986;6.014;2023-02-23T01:33:07;94.45;;;50.55;;
56161;SDS011;42045;52.986;6.014;2023-02-23T01:35:34;99.78;;;51.70;;
56161;SDS011;42045;52.986;6.014;2023-02-23T01:37:59;114.20;;;55.13;;
56161;SDS011;42045;52.986;6.014;2023-02-23T01:40:25;108.40;;;51.90;;
56161;SDS011;42045;52.986;6.014;2023-02-23T01:42:58;106.53;;;50.85;;
56161;SDS011;42045;52.986;6.014;2023-02-23T01:45:36;103.60;;;50.28;;
56161;SDS011;42045;52.986;6.014;2023-02-23T01:48:08;95.80;;;48.35;;
56161;SDS011;42045;52.986;6.014;2023-02-23T01:50:57;96.55;;;51.38;;
56161;SDS011;42045;52.986;6.014;2023-02-23T01:53:27;112.43;;;50.70;;
56161;SDS011;42045;52.986;6.014;2023-02-23T01:56:00;105.93;;;50.83;;
56161;SDS011;42045;52.986;6.014;2023-02-23T01:58:29;96.65;;;47.97;;
56161;SDS011;42045;52.986;6.014;2023-02-23T02:00:58;100.35;;;49.35;;
56161;SDS011;42045;52.986;6.014;2023-02-23T02:03:29;95.35;;;50.55;;
56161;SDS011;42045;52.986;6.014;2023-02-23T02:05:59;102.95;;;49.90;;
56161;SDS011;42045;52.986;6.014;2023-02-23T02:08:27;98.32;;;48.97;;
56161;SDS011;42045;52.986;6.014;2023-02-23T02:10:56;100.20;;;47.92;;
56161;SDS011;42045;52.986;6.014;2023-02-23T02:13:23;102.30;;;47.92;;
56161;SDS011;42045;52.986;6.014;2023-02-23T02:18:57;91.72;;;47.00;;
56161;SDS011;42045;52.986;6.014;2023-02-23T02:27:31;99.32;;;45.92;;
56161;SDS011;42045;52.986;6.014;2023-02-23T02:35:35;93.22;;;45.00;;
56161;SDS011;42045;52.986;6.014;2023-02-23T02:41:19;88.05;;;45.35;;
56161;SDS011;42045;52.986;6.014;2023-02-23T02:46:56;97.22;;;45.83;;
56161;SDS011;42045;52.986;6.014;2023-02-23T02:49:30;100.55;;;47.75;;
56161;SDS011;42045;52.986;6.014;2023-02-23T02:52:02;84.57;;;45.50;;
56161;SDS011;42045;52.986;6.014;2023-02-23T02:54:50;91.47;;;45.20;;
56161;SDS011;42045;52.986;6.014;2023-02-23T02:57:21;92.70;;;44.05;;
56161;SDS011;42045;52.986;6.014;2023-02-23T02:59:50;90.83;;;44.50;;
56161;SDS011;42045;52.986;6.014;2023-02-23T03:02:38;93.10;;;45.08;;
56161;SDS011;42045;52.986;6.014;2023-02-23T03:05:45;95.35;;;46.45;;
56161;SDS011;42045;52.986;6.014;2023-02-23T03:08:38;98.50;;;45.30;;
56161;SDS011;42045;52.986;6.014;2023-02-23T03:11:39;85.32;;;44.15;;
56161;SDS011;42045;52.986;6.014;2023-02-23T03:17:43;73.20;;;39.00;;
56161;SDS011;42045;52.986;6.014;2023-02-23T03:29:36;54.33;;;30.75;;
56161;SDS011;42045;52.986;6.014;2023-02-23T03:32:34;61.28;;;32.28;;
56161;SDS011;42045;52.986;6.014;2023-02-23T03:35:29;54.47;;;30.33;;
56161;SDS011;42045;52.986;6.014;2023-02-23T03:38:52;66.43;;;32.95;;
56161;SDS011;42045;52.986;6.014;2023-02-23T03:41:45;60.28;;;31.30;;
56161;SDS011;42045;52.986;6.014;2023-02-23T03:44:31;56.40;;;30.63;;
56161;SDS011;42045;52.986;6.014;2023-02-23T03:47:20;54.80;;;29.30;;
56161;SDS011;42045;52.986;6.014;2023-02-23T03:50:11;49.97;;;28.58;;
56161;SDS011;42045;52.986;6.014;2023-02-23T03:53:01;55.58;;;31.02;;
56161;SDS011;42045;52.986;6.014;2023-02-23T03:55:49;51.70;;;26.83;;
56161;SDS011;42045;52.986;6.014;2023-02-23T03:58:48;47.47;;;27.38;;
56161;SDS011;42045;52.986;6.014;2023-02-23T04:01:37;50.33;;;27.17;;
56161;SDS011;42045;52.986;6.014;2023-02-23T04:04:22;52.63;;;27.85;;
56161;SDS011;42045;52.986;6.014;2023-02-23T04:07:08;48.88;;;28.17;;
56161;SDS011;42045;52.986;6.014;2023-02-23T04:09:56;49.03;;;28.52;;
56161;SDS011;42045;52.986;6.014;2023-02-23T04:12:50;47.35;;;27.02;;
56161;SDS011;42045;52.986;6.014;2023-02-23T04:18:23;55.63;;;30.55;;
56161;SDS011;42045;52.986;6.014;2023-02-23T04:21:00;57.78;;;32.60;;
56161;SDS011;42045;52.986;6.014;2023-02-23T04:23:26;60.22;;;32.08;;
56161;SDS011;42045;52.986;6.014;2023-02-23T04:25:53;63.97;;;33.53;;
56161;SDS011;42045;52.986;6.014;2023-02-23T04:28:20;70.25;;;36.83;;
56161;SDS011;42045;52.986;6.014;2023-02-23T04:30:47;79.57;;;46.80;;
56161;SDS011;42045;52.986;6.014;2023-02-23T04:33:13;74.20;;;39.70;;
56161;SDS011;42045;52.986;6.014;2023-02-23T04:35:39;75.22;;;38.58;;
56161;SDS011;42045;52.986;6.014;2023-02-23T04:38:05;70.07;;;38.03;;
56161;SDS011;42045;52.986;6.014;2023-02-23T04:40:31;66.88;;;35.45;;
56161;SDS011;42045;52.986;6.014;2023-02-23T04:42:57;69.32;;;37.75;;
56161;SDS011;42045;52.986;6.014;2023-02-23T04:45:23;67.88;;;37.90;;
56161;SDS011;42045;52.986;6.014;2023-02-23T04:47:49;66.35;;;35.90;;
56161;SDS011;42045;52.986;6.014;2023-02-23T04:50:15;71.10;;;36.55;;
56161;SDS011;42045;52.986;6.014;2023-02-23T04:52:41;63.13;;;34.00;;
56161;SDS011;42045;52.986;6.014;2023-02-23T04:55:08;68.03;;;38.05;;
56161;SDS011;42045;52.986;6.014;2023-02-23T04:57:39;70.17;;;36.03;;
56161;SDS011;42045;52.986;6.014;2023-02-23T05:00:05;76.07;;;37.60;;
56161;SDS011;42045;52.986;6.014;2023-02-23T05:02:31;67.93;;;37.00;;
56161;SDS011;42045;52.986;6.014;2023-02-23T05:04:57;66.28;;;36.88;;
56161;SDS011;42045;52.986;6.014;2023-02-23T05:07:23;65.85;;;37.20;;
56161;SDS011;42045;52.986;6.014;2023-02-23T05:09:48;68.72;;;35.70;;
56161;SDS011;42045;52.986;6.014;2023-02-23T05:12:14;64.88;;;35.17;;
56161;SDS011;42045;52.986;6.014;2023-02-23T05:14:40;68.68;;;37.35;;
56161;SDS011;42045;52.986;6.014;2023-02-23T05:17:06;68.38;;;38.00;;
56161;SDS011;42045;52.986;6.014;2023-02-23T05:19:32;68.97;;;37.50;;
56161;SDS011;42045;52.986;6.014;2023-02-23T05:21:58;66.25;;;35.30;;
56161;SDS011;42045;52.986;6.014;2023-02-23T05:24:23;69.88;;;36.65;;
56161;SDS011;42045;52.986;6.014;2023-02-23T05:26:49;72.05;;;37.22;;
56161;SDS011;42045;52.986;6.014;2023-02-23T05:29:15;61.85;;;34.55;;
56161;SDS011;42045;52.986;6.014;2023-02-23T05:31:41;65.97;;;34.65;;
56161;SDS011;42045;52.986;6.014;2023-02-23T05:34:07;62.92;;;34.00;;
56161;SDS011;42045;52.986;6.014;2023-02-23T05:36:33;69.97;;;37.75;;
56161;SDS011;42045;52.986;6.014;2023-02-23T05:38:59;72.13;;;36.85;;
56161;SDS011;42045;52.986;6.014;2023-02-23T05:41:25;68.70;;;37.22;;
56161;SDS011;42045;52.986;6.014;2023-02-23T05:43:51;70.15;;;36.75;;
56161;SDS011;42045;52.986;6.014;2023-02-23T05:46:20;69.57;;;37.08;;
56161;SDS011;42045;52.986;6.014;2023-02-23T05:48:48;64.43;;;35.38;;
56161;SDS011;42045;52.986;6.014;2023-02-23T05:51:15;75.00;;;38.85;;
56161;SDS011;42045;52.986;6.014;2023-02-23T05:53:42;68.07;;;38.10;;
56161;SDS011;42045;52.986;6.014;2023-02-23T05:56:10;67.40;;;36.05;;
56161;SDS011;42045;52.986;6.014;2023-02-23T05:58:38;68.95;;;36.03;;
56161;SDS011;42045;52.986;6.014;2023-02-23T06:01:04;68.22;;;37.72;;
56161;SDS011;42045;52.986;6.014;2023-02-23T06:03:29;70.75;;;36.75;;
56161;SDS011;42045;52.986;6.014;2023-02-23T06:05:56;71.95;;;37.55;;
56161;SDS011;42045;52.986;6.014;2023-02-23T06:08:23;70.78;;;37.72;;
56161;SDS011;42045;52.986;6.014;2023-02-23T06:10:50;69.35;;;36.08;;
56161;SDS011;42045;52.986;6.014;2023-02-23T06:13:16;74.10;;;38.15;;
56161;SDS011;42045;52.986;6.014;2023-02-23T06:15:42;76.60;;;38.25;;
56161;SDS011;42045;52.986;6.014;2023-02-23T06:18:08;73.57;;;39.53;;
56161;SDS011;42045;52.986;6.014;2023-02-23T06:20:34;68.03;;;37.10;;
56161;SDS011;42045;52.986;6.014;2023-02-23T06:23:01;72.28;;;38.83;;
56161;SDS011;42045;52.986;6.014;2023-02-23T06:25:27;79.43;;;38.40;;
56161;SDS011;42045;52.986;6.014;2023-02-23T06:27:52;74.75;;;37.13;;
56161;SDS011;42045;52.986;6.014;2023-02-23T06:30:18;65.07;;;36.55;;
56161;SDS011;42045;52.986;6.014;2023-02-23T06:32:44;69.00;;;36.45;;
56161;SDS011;42045;52.986;6.014;2023-02-23T06:35:10;78.85;;;38.20;;
56161;SDS011;42045;52.986;6.014;2023-02-23T06:37:36;75.38;;;39.05;;
56161;SDS011;42045;52.986;6.014;2023-02-23T06:40:02;72.38;;;38.05;;
56161;SDS011;42045;52.986;6.014;2023-02-23T06:42:28;79.82;;;38.08;;
56161;SDS011;42045;52.986;6.014;2023-02-23T06:44:54;69.15;;;36.47;;
56161;SDS011;42045;52.986;6.014;2023-02-23T06:47:20;73.80;;;37.53;;
56161;SDS011;42045;52.986;6.014;2023-02-23T06:49:45;75.60;;;38.70;;
56161;SDS011;42045;52.986;6.014;2023-02-23T06:52:12;74.75;;;37.13;;
56161;SDS011;42045;52.986;6.014;2023-02-23T06:54:38;73.13;;;37.47;;
56161;SDS011;42045;52.986;6.014;2023-02-23T06:57:05;77.63;;;37.67;;
56161;SDS011;42045;52.986;6.014;2023-02-23T06:59:35;74.65;;;38.45;;
56161;SDS011;42045;52.986;6.014;2023-02-23T07:02:01;74.75;;;38.40;;
56161;SDS011;42045;52.986;6.014;2023-02-23T07:04:29;73.53;;;36.80;;
56161;SDS011;42045;52.986;6.014;2023-02-23T07:06:56;75.07;;;38.22;;
56161;SDS011;42045;52.986;6.014;2023-02-23T07:09:21;78.10;;;39.50;;
56161;SDS011;42045;52.986;6.014;2023-02-23T07:11:47;78.07;;;38.20;;
56161;SDS011;42045;52.986;6.014;2023-02-23T07:14:13;84.75;;;41.10;;
56161;SDS011;42045;52.986;6.014;2023-02-23T07:16:39;79.55;;;40.35;;
56161;SDS011;42045;52.986;6.014;2023-02-23T07:19:05;77.30;;;40.05;;
56161;SDS011;42045;52.986;6.014;2023-02-23T07:21:31;79.57;;;39.78;;
56161;SDS011;42045;52.986;6.014;2023-02-23T07:23:58;89.40;;;41.60;;
56161;SDS011;42045;52.986;6.014;2023-02-23T07:26:24;83.40;;;41.17;;
56161;SDS011;42045;52.986;6.014;2023-02-23T07:28:50;83.25;;;42.55;;
56161;SDS011;42045;52.986;6.014;2023-02-23T07:31:16;79.72;;;41.00;;
56161;SDS011;42045;52.986;6.014;2023-02-23T07:33:42;81.88;;;42.30;;
56161;SDS011;42045;52.986;6.014;2023-02-23T07:36:08;89.13;;;43.95;;
56161;SDS011;42045;52.986;6.014;2023-02-23T07:38:34;88.57;;;43.22;;
56161;SDS011;42045;52.986;6.014;2023-02-23T07:41:00;89.07;;;42.50;;
56161;SDS011;42045;52.986;6.014;2023-02-23T07:43:27;87.50;;;41.42;;
56161;SDS011;42045;52.986;6.014;2023-02-23T07:45:52;88.38;;;42.08;;
56161;SDS011;42045;52.986;6.014;2023-02-23T07:48:18;81.22;;;41.08;;
56161;SDS011;42045;52.986;6.014;2023-02-23T07:50:45;88.82;;;45.08;;
56161;SDS011;42045;52.986;6.014;2023-02-23T07:53:10;91.50;;;43.45;;
56161;SDS011;42045;52.986;6.014;2023-02-23T07:55:37;86.90;;;42.40;;
56161;SDS011;42045;52.986;6.014;2023-02-23T07:58:03;94.60;;;45.38;;
56161;SDS011;42045;52.986;6.014;2023-02-23T08:00:30;82.88;;;42.83;;
56161;SDS011;42045;52.986;6.014;2023-02-23T08:02:57;91.38;;;43.88;;
56161;SDS011;42045;52.986;6.014;2023-02-23T08:05:22;83.45;;;45.22;;
56161;SDS011;42045;52.986;6.014;2023-02-23T08:07:49;83.13;;;43.22;;
56161;SDS011;42045;52.986;6.014;2023-02-23T08:10:15;82.32;;;42.17;;
56161;SDS011;42045;52.986;6.014;2023-02-23T08:12:41;85.07;;;42.65;;
56161;SDS011;42045;52.986;6.014;2023-02-23T08:15:08;79.05;;;40.58;;
56161;SDS011;42045;52.986;6.014;2023-02-23T08:17:35;75.85;;;40.78;;
56161;SDS011;42045;52.986;6.014;2023-02-23T08:20:01;79.82;;;41.13;;
56161;SDS011;42045;52.986;6.014;2023-02-23T08:22:27;87.28;;;42.03;;
56161;SDS011;42045;52.986;6.014;2023-02-23T08:24:53;74.85;;;40.08;;
56161;SDS011;42045;52.986;6.014;2023-02-23T08:27:19;84.85;;;40.95;;
56161;SDS011;42045;52.986;6.014;2023-02-23T08:29:44;83.68;;;42.13;;
56161;SDS011;42045;52.986;6.014;2023-02-23T08:32:10;81.55;;;41.15;;
56161;SDS011;42045;52.986;6.014;2023-02-23T08:34:37;76.25;;;39.05;;
56161;SDS011;42045;52.986;6.014;2023-02-23T08:37:03;78.00;;;44.05;;
56161;SDS011;42045;52.986;6.014;2023-02-23T08:39:31;109.53;;;59.28;;
56161;SDS011;42045;52.986;6.014;2023-02-23T08:41:57;86.43;;;42.40;;
56161;SDS011;42045;52.986;6.014;2023-02-23T08:44:23;81.93;;;44.33;;
56161;SDS011;42045;52.986;6.014;2023-02-23T08:46:49;74.07;;;40.88;;
56161;SDS011;42045;52.986;6.014;2023-02-23T08:49:15;77.40;;;39.53;;
56161;SDS011;42045;52.986;6.014;2023-02-23T08:51:41;75.32;;;38.58;;
56161;SDS011;42045;52.986;6.014;2023-02-23T08:54:07;76.55;;;39.58;;
56161;SDS011;42045;52.986;6.014;2023-02-23T08:56:38;69.85;;;39.28;;
56161;SDS011;42045;52.986;6.014;2023-02-23T08:59:04;68.38;;;39.28;;
56161;SDS011;42045;52.986;6.014;2023-02-23T09:01:30;67.05;;;37.50;;
56161;SDS011;42045;52.986;6.014;2023-02-23T09:03:55;71.95;;;37.60;;
56161;SDS011;42045;52.986;6.014;2023-02-23T09:06:22;66.95;;;36.08;;
56161;SDS011;42045;52.986;6.014;2023-02-23T09:08:50;60.83;;;34.47;;
56161;SDS011;42045;52.986;6.014;2023-02-23T09:11:16;71.18;;;38.08;;
56161;SDS011;42045;52.986;6.014;2023-02-23T09:13:42;65.35;;;36.17;;
56161;SDS011;42045;52.986;6.014;2023-02-23T09:16:08;77.43;;;44.47;;
56161;SDS011;42045;52.986;6.014;2023-02-23T09:18:34;74.45;;;46.17;;
56161;SDS011;42045;52.986;6.014;2023-02-23T09:21:04;67.38;;;39.60;;
56161;SDS011;42045;52.986;6.014;2023-02-23T09:23:31;63.85;;;35.55;;
56161;SDS011;42045;52.986;6.014;2023-02-23T09:26:01;69.22;;;39.50;;
56161;SDS011;42045;52.986;6.014;2023-02-23T09:28:31;65.13;;;38.20;;
56161;SDS011;42045;52.986;6.014;2023-02-23T09:30:58;59.40;;;34.40;;
56161;SDS011;42045;52.986;6.014;2023-02-23T09:33:30;62.58;;;36.40;;
56161;SDS011;42045;52.986;6.014;2023-02-23T09:35:56;57.30;;;33.88;;
56161;SDS011;42045;52.986;6.014;2023-02-23T09:38:22;59.45;;;33.78;;
56161;SDS011;42045;52.986;6.014;2023-02-23T09:40:49;54.55;;;32.38;;
56161;SDS011;42045;52.986;6.014;2023-02-23T09:46:23;61.53;;;33.78;;
56161;SDS011;42045;52.986;6.014;2023-02-23T09:48:58;55.17;;;31.67;;
56161;SDS011;42045;52.986;6.014;2023-02-23T09:51:26;58.38;;;31.75;;
56161;SDS011;42045;52.986;6.014;2023-02-23T09:53:55;61.97;;;31.75;;
56161;SDS011;42045;52.986;6.014;2023-02-23T09:56:30;47.47;;;25.98;;
56161;SDS011;42045;52.986;6.014;2023-02-23T09:59:06;45.65;;;26.05;;
56161;SDS011;42045;52.986;6.014;2023-02-23T10:04:11;54.30;;;30.10;;
56161;SDS011;42045;52.986;6.014;2023-02-23T10:06:46;55.67;;;30.27;;
56161;SDS011;42045;52.986;6.014;2023-02-23T10:09:34;56.47;;;31.23;;
56161;SDS011;42045;52.986;6.014;2023-02-23T10:15:13;57.95;;;29.17;;
56161;SDS011;42045;52.986;6.014;2023-02-23T10:17:58;50.72;;;28.63;;
56161;SDS011;42045;52.986;6.014;2023-02-23T10:21:02;53.60;;;28.85;;
56161;SDS011;42045;52.986;6.014;2023-02-23T10:23:49;56.22;;;30.98;;
56161;SDS011;42045;52.986;6.014;2023-02-23T10:26:22;58.05;;;29.00;;
56161;SDS011;42045;52.986;6.014;2023-02-23T10:28:51;55.53;;;34.28;;
56161;SDS011;42045;52.986;6.014;2023-02-23T10:31:39;46.65;;;27.13;;
56161;SDS011;42045;52.986;6.014;2023-02-23T10:34:10;46.13;;;27.77;;
56161;SDS011;42045;52.986;6.014;2023-02-23T10:36:41;50.92;;;29.50;;
56161;SDS011;42045;52.986;6.014;2023-02-23T10:39:23;49.38;;;26.77;;
56161;SDS011;42045;52.986;6.014;2023-02-23T10:41:49;51.35;;;27.90;;
56161;SDS011;42045;52.986;6.014;2023-02-23T10:44:19;50.65;;;27.55;;
56161;SDS011;42045;52.986;6.014;2023-02-23T10:46:49;54.78;;;29.85;;
56161;SDS011;42045;52.986;6.014;2023-02-23T10:49:26;95.72;;;64.68;;
56161;SDS011;42045;52.986;6.014;2023-02-23T10:51:59;62.78;;;33.13;;
56161;SDS011;42045;52.986;6.014;2023-02-23T10:54:46;53.50;;;30.38;;
56161;SDS011;42045;52.986;6.014;2023-02-23T11:02:38;53.75;;;31.50;;
56161;SDS011;42045;52.986;6.014;2023-02-23T11:05:05;60.80;;;30.23;;
56161;SDS011;42045;52.986;6.014;2023-02-23T11:07:32;63.83;;;32.25;;
56161;SDS011;42045;52.986;6.014;2023-02-23T11:12:48;65.28;;;35.22;;
56161;SDS011;42045;52.986;6.014;2023-02-23T11:17:55;66.95;;;34.95;;
56161;SDS011;42045;52.986;6.014;2023-02-23T11:22:47;68.28;;;33.47;;
56161;SDS011;42045;52.986;6.014;2023-02-23T11:25:14;67.20;;;36.38;;
56161;SDS011;42045;52.986;6.014;2023-02-23T11:27:47;66.53;;;34.53;;
56161;SDS011;42045;52.986;6.014;2023-02-23T11:30:15;64.97;;;35.03;;
56161;SDS011;42045;52.986;6.014;2023-02-23T11:32:48;65.40;;;35.33;;
56161;SDS011;42045;52.986;6.014;2023-02-23T11:37:45;69.30;;;35.10;;
56161;SDS011;42045;52.986;6.014;2023-02-23T11:40:19;70.45;;;36.13;;
56161;SDS011;42045;52.986;6.014;2023-02-23T11:42:51;80.85;;;37.70;;
56161;SDS011;42045;52.986;6.014;2023-02-23T11:45:22;79.75;;;38.63;;
56161;SDS011;42045;52.986;6.014;2023-02-23T11:47:51;79.70;;;38.90;;
56161;SDS011;42045;52.986;6.014;2023-02-23T11:56:02;81.30;;;40.47;;
56161;SDS011;42045;52.986;6.014;2023-02-23T11:58:37;83.88;;;38.63;;
56161;SDS011;42045;52.986;6.014;2023-02-23T12:01:09;81.57;;;38.53;;
56161;SDS011;42045;52.986;6.014;2023-02-23T12:03:51;92.65;;;39.60;;
56161;SDS011;42045;52.986;6.014;2023-02-23T12:06:24;90.57;;;39.40;;
56161;SDS011;42045;52.986;6.014;2023-02-23T12:11:59;93.82;;;40.58;;
56161;SDS011;42045;52.986;6.014;2023-02-23T12:17:27;95.80;;;39.58;;
56161;SDS011;42045;52.986;6.014;2023-02-23T12:20:12;98.50;;;42.38;;
56161;SDS011;42045;52.986;6.014;2023-02-23T12:22:44;102.07;;;40.38;;
56161;SDS011;42045;52.986;6.014;2023-02-23T12:25:23;95.65;;;40.17;;
56161;SDS011;42045;52.986;6.014;2023-02-23T12:30:31;106.07;;;42.42;;
56161;SDS011;42045;52.986;6.014;2023-02-23T12:33:12;113.00;;;45.90;;
56161;SDS011;42045;52.986;6.014;2023-02-23T12:35:58;109.03;;;44.97;;
56161;SDS011;42045;52.986;6.014;2023-02-23T12:38:53;111.70;;;42.85;;
56161;SDS011;42045;52.986;6.014;2023-02-23T12:41:25;109.45;;;47.85;;
56161;SDS011;42045;52.986;6.014;2023-02-23T12:49:59;113.82;;;44.28;;
56161;SDS011;42045;52.986;6.014;2023-02-23T12:52:50;119.85;;;45.83;;
56161;SDS011;42045;52.986;6.014;2023-02-23T12:58:06;54.50;;;24.75;;
56161;SDS011;42045;52.986;6.014;2023-02-23T13:01:03;38.42;;;15.07;;
56161;SDS011;42045;52.986;6.014;2023-02-23T13:16:56;35.38;;;7.38;;
56161;SDS011;42045;52.986;6.014;2023-02-23T13:19:49;36.08;;;7.00;;
56161;SDS011;42045;52.986;6.014;2023-02-23T13:25:02;36.58;;;8.13;;
56161;SDS011;42045;52.986;6.014;2023-02-23T13:27:45;41.85;;;8.45;;
56161;SDS011;42045;52.986;6.014;2023-02-23T13:30:15;39.50;;;8.00;;
56161;SDS011;42045;52.986;6.014;2023-02-23T13:32:44;39.00;;;8.68;;
56161;SDS011;42045;52.986;6.014;2023-02-23T13:35:15;40.13;;;8.13;;
56161;SDS011;42045;52.986;6.014;2023-02-23T13:37:53;46.05;;;8.55;;
56161;SDS011;42045;52.986;6.014;2023-02-23T13:43:17;47.28;;;8.75;;
56161;SDS011;42045;52.986;6.014;2023-02-23T13:48:56;47.40;;;10.07;;
56161;SDS011;42045;52.986;6.014;2023-02-23T13:51:40;46.95;;;8.43;;
56161;SDS011;42045;52.986;6.014;2023-02-23T13:54:23;61.83;;;10.98;;
56161;SDS011;42045;52.986;6.014;2023-02-23T13:56:55;55.10;;;10.07;;
56161;SDS011;42045;52.986;6.014;2023-02-23T13:59:27;47.08;;;9.23;;
56161;SDS011;42045;52.986;6.014;2023-02-23T14:02:06;51.42;;;10.40;;
56161;SDS011;42045;52.986;6.014;2023-02-23T14:04:47;50.15;;;10.52;;
56161;SDS011;42045;52.986;6.014;2023-02-23T14:07:21;49.58;;;10.15;;
56161;SDS011;42045;52.986;6.014;2023-02-23T14:09:54;49.83;;;9.60;;
56161;SDS011;42045;52.986;6.014;2023-02-23T14:12:40;50.83;;;8.70;;
56161;SDS011;42045;52.986;6.014;2023-02-23T14:17:55;48.90;;;8.88;;
56161;SDS011;42045;52.986;6.014;2023-02-23T14:23:26;45.25;;;9.48;;
56161;SDS011;42045;52.986;6.014;2023-02-23T14:26:15;47.05;;;8.55;;
56161;SDS011;42045;52.986;6.014;2023-02-23T14:31:57;48.00;;;9.35;;
56161;SDS011;42045;52.986;6.014;2023-02-23T14:34:48;44.70;;;8.85;;
56161;SDS011;42045;52.986;6.014;2023-02-23T14:37:38;53.55;;;9.13;;
56161;SDS011;42045;52.986;6.014;2023-02-23T14:40:16;51.80;;;9.73;;
56161;SDS011;42045;52.986;6.014;2023-02-23T14:42:45;50.53;;;11.48;;
56161;SDS011;42045;52.986;6.014;2023-02-23T14:45:22;52.45;;;11.13;;
56161;SDS011;42045;52.986;6.014;2023-02-23T14:47:51;44.95;;;8.45;;
56161;SDS011;42045;52.986;6.014;2023-02-23T14:50:37;49.17;;;10.77;;
56161;SDS011;42045;52.986;6.014;2023-02-23T14:53:03;37.67;;;8.88;;
56161;SDS011;42045;52.986;6.014;2023-02-23T14:55:39;47.70;;;10.30;;
56161;SDS011;42045;52.986;6.014;2023-02-23T14:58:25;45.78;;;9.88;;
56161;SDS011;42045;52.986;6.014;2023-02-23T15:00:52;48.58;;;10.82;;
56161;SDS011;42045;52.986;6.014;2023-02-23T15:03:18;44.20;;;8.52;;
56161;SDS011;42045;52.986;6.014;2023-02-23T15:05:55;51.72;;;8.25;;
56161;SDS011;42045;52.986;6.014;2023-02-23T15:08:24;37.03;;;7.75;;
56161;SDS011;42045;52.986;6.014;2023-02-23T15:13:36;37.03;;;8.18;;
56161;SDS011;42045;52.986;6.014;2023-02-23T15:16:10;39.83;;;7.30;;
56161;SDS011;42045;52.986;6.014;2023-02-23T15:18:40;40.58;;;7.57;;
56161;SDS011;42045;52.986;6.014;2023-02-23T15:21:10;36.22;;;8.05;;
56161;SDS011;42045;52.986;6.014;2023-02-23T15:23:44;34.22;;;7.95;;
56161;SDS011;42045;52.986;6.014;2023-02-23T15:26:24;46.95;;;9.27;;
56161;SDS011;42045;52.986;6.014;2023-02-23T15:34:14;38.60;;;6.53;;
56161;SDS011;42045;52.986;6.014;2023-02-23T15:36:45;30.75;;;6.80;;
56161;SDS011;42045;52.986;6.014;2023-02-23T15:39:15;29.25;;;5.40;;
56161;SDS011;42045;52.986;6.014;2023-02-23T15:41:44;30.85;;;6.40;;
56161;SDS011;42045;52.986;6.014;2023-02-23T15:44:22;29.70;;;6.45;;
56161;SDS011;42045;52.986;6.014;2023-02-23T15:46:53;37.75;;;7.05;;
56161;SDS011;42045;52.986;6.014;2023-02-23T15:49:21;25.92;;;6.30;;
56161;SDS011;42045;52.986;6.014;2023-02-23T15:51:55;27.90;;;5.43;;
56161;SDS011;42045;52.986;6.014;2023-02-23T15:54:29;25.88;;;5.78;;
56161;SDS011;42045;52.986;6.014;2023-02-23T15:57:05;30.85;;;5.40;;
56161;SDS011;42045;52.986;6.014;2023-02-23T15:59:38;36.38;;;6.00;;
56161;SDS011;42045;52.986;6.014;2023-02-23T16:02:15;28.00;;;4.57;;
56161;SDS011;42045;52.986;6.014;2023-02-23T16:04:47;22.40;;;5.03;;
56161;SDS011;42045;52.986;6.014;2023-02-23T16:07:20;28.23;;;4.80;;
56161;SDS011;42045;52.986;6.014;2023-02-23T16:14:57;26.08;;;4.72;;
56161;SDS011;42045;52.986;6.014;2023-02-23T16:17:28;25.92;;;6.65;;
56161;SDS011;42045;52.986;6.014;2023-02-23T16:20:05;28.65;;;5.53;;
56161;SDS011;42045;52.986;6.014;2023-02-23T16:22:35;29.85;;;5.38;;
56161;SDS011;42045;52.986;6.014;2023-02-23T16:25:06;27.83;;;5.78;;
56161;SDS011;42045;52.986;6.014;2023-02-23T16:27:35;22.10;;;5.75;;
56161;SDS011;42045;52.986;6.014;2023-02-23T16:30:15;27.23;;;4.30;;
56161;SDS011;42045;52.986;6.014;2023-02-23T16:35:49;23.33;;;4.50;;
56161;SDS011;42045;52.986;6.014;2023-02-23T16:38:24;25.92;;;5.63;;
56161;SDS011;42045;52.986;6.014;2023-02-23T16:40:58;19.27;;;3.85;;
56161;SDS011;42045;52.986;6.014;2023-02-23T16:43:26;24.90;;;4.57;;
56161;SDS011;42045;52.986;6.014;2023-02-23T16:45:53;22.13;;;4.03;;
56161;SDS011;42045;52.986;6.014;2023-02-23T16:48:20;18.70;;;4.47;;
56161;SDS011;42045;52.986;6.014;2023-02-23T16:50:47;22.38;;;4.35;;
56161;SDS011;42045;52.986;6.014;2023-02-23T16:53:13;24.45;;;5.55;;
56161;SDS011;42045;52.986;6.014;2023-02-23T16:55:59;19.27;;;4.13;;
56161;SDS011;42045;52.986;6.014;2023-02-23T16:58:25;27.77;;;4.30;;
56161;SDS011;42045;52.986;6.014;2023-02-23T17:00:54;27.85;;;5.05;;